Time;durP1;ratioP1;P1;durP2;ratioP2;P2;SDS_P1;SDS_P2;PMS_P1;PMS_P2;Temp;Humidity;BMP_temperature;BMP_pressure;BME280_temperature;BME280_humidity;BME280_pressure;Samples;Min_cycle;Max_cycle;Signal;HPM_P1;HPM_P2
2023/03/01 00:00:06;;;;;;;39.97;20.80;;;28.70;80.10;;;;;;5083780;28;20126;-54
2023/03/01 00:02:33;;;;;;;88.13;23.92;;;28.70;80.10;;;;;;5083705;28;20391;-48
2023/03/01 00:05:00;;;;;;;27.30;20.95;;;28.70;80.20;;;;;;5083764;28;20091;-52
2023/03/01 00:07:26;;;;;;;40.25;20.88;;;28.60;79.90;;;;;;5083727;28;20017;-51
2023/03/01 00:09:53;;;;;;;86.07;23.67;;;28.60;80.00;;;;;;5083971;28;20074;-55
2023/03/01 00:12:20;;;;;;;102.45;24.33;;;28.60;80.00;;;;;;5083506;28;20051;-52
2023/03/01 00:14:47;;;;;;;47.95;21.90;;;28.60;79.80;;;;;;5084089;28;20084;-53
2023/03/01 00:17:14;;;;;;;46.33;21.25;;;28.60;79.40;;;;;;5083624;28;20036;-52
2023/03/01 00:19:40;;;;;;;42.35;21.85;;;28.60;79.50;;;;;;5083882;28;20059;-51
2023/03/01 00:22:07;;;;;;;34.47;20.10;;;28.60;79.40;;;;;;5083657;28;20024;-53
2023/03/01 00:24:33;;;;;;;32.60;21.52;;;28.60;79.20;;;;;;5083729;28;20043;-52
2023/03/01 00:27:00;;;;;;;27.92;20.70;;;28.60;79.00;;;;;;5083294;28;20043;-47
2023/03/01 00:29:26;;;;;;;25.88;20.40;;;28.50;78.90;;;;;;5083848;28;20024;-54
2023/03/01 00:31:53;;;;;;;27.27;20.85;;;28.60;78.70;;;;;;5083368;28;20358;-48
2023/03/01 00:34:20;;;;;;;25.25;20.65;;;28.50;78.50;;;;;;5083645;28;20031;-49
2023/03/01 00:36:46;;;;;;;22.25;19.77;;;28.50;78.70;;;;;;5083408;28;20036;-50
2023/03/01 00:39:15;;;;;;;23.65;20.23;;;28.50;78.30;;;;;;5083667;28;20224;-51
2023/03/01 00:41:42;;;;;;;21.88;19.55;;;28.50;78.30;;;;;;5083104;28;20066;-56
2023/03/01 00:44:10;;;;;;;21.85;19.60;;;28.50;78.20;;;;;;5083561;28;20032;-54
2023/03/01 00:46:37;;;;;;;21.58;19.38;;;28.50;78.00;;;;;;5083244;28;20020;-53
2023/03/01 00:49:04;;;;;;;21.58;19.55;;;28.50;77.70;;;;;;5083139;28;20055;-58
2023/03/01 00:51:31;;;;;;;21.63;19.70;;;28.50;77.50;;;;;;5083113;28;20012;-55
2023/03/01 00:54:00;;;;;;;22.52;19.98;;;28.50;77.60;;;;;;5083491;28;20047;-49
2023/03/01 00:56:27;;;;;;;21.98;19.75;;;28.40;77.60;;;;;;5083061;28;20016;-54
2023/03/01 00:58:54;;;;;;;28.23;19.38;;;28.40;77.60;;;;;;5083406;28;20028;-52
2023/03/01 01:01:29;;;;;;;21.55;19.55;;;28.40;77.50;;;;;;5083454;28;20199;-51
2023/03/01 01:04:01;;;;;;;22.25;20.00;;;28.40;77.70;;;;;;5083358;28;20028;-53
2023/03/01 01:06:31;;;;;;;21.98;20.00;;;28.40;77.60;;;;;;5083143;28;20320;-49
2023/03/01 01:08:58;;;;;;;22.70;20.55;;;28.40;77.40;;;;;;5083243;28;20036;-53
2023/03/01 01:11:26;;;;;;;21.67;19.55;;;28.40;77.80;;;;;;5081764;28;20284;-54
2023/03/01 01:13:53;;;;;;;41.00;21.00;;;28.30;77.90;;;;;;5075333;28;20031;-53
2023/03/01 01:16:21;;;;;;;21.65;19.08;;;28.30;78.20;;;;;;5086341;28;20012;-48
2023/03/01 01:18:48;;;;;;;22.02;19.77;;;28.40;78.20;;;;;;5082640;28;20025;-53
2023/03/01 01:21:20;;;;;;;22.38;20.20;;;28.40;78.30;;;;;;5077374;28;20041;-51
2023/03/01 01:23:47;;;;;;;23.67;20.40;;;28.30;78.00;;;;;;5086307;28;20028;-52
2023/03/01 01:26:18;;;;;;;21.85;19.60;;;28.30;78.00;;;;;;5085155;28;20078;-57
2023/03/01 01:28:45;;;;;;;23.58;20.13;;;28.30;78.10;;;;;;5086701;28;20343;-52
2023/03/01 01:31:12;;;;;;;22.20;19.00;;;28.30;78.20;;;;;;5086270;28;20039;-53
2023/03/01 01:33:39;;;;;;;23.05;19.90;;;28.30;77.90;;;;;;5081008;28;20027;-51
2023/03/01 01:36:07;;;;;;;22.52;19.88;;;28.30;78.10;;;;;;5084230;28;20027;-53
2023/03/01 01:38:35;;;;;;;20.92;18.92;;;28.30;77.80;;;;;;5086347;28;20312;-57
2023/03/01 01:41:02;;;;;;;23.90;18.63;;;28.20;77.80;;;;;;5085893;28;20012;-53
2023/03/01 01:43:33;;;;;;;21.00;18.92;;;28.20;77.90;;;;;;5086262;28;20095;-54
2023/03/01 01:46:25;;;;;;;21.35;19.33;;;28.20;78.10;;;;;;5080609;28;20047;-54
2023/03/01 01:49:15;;;;;;;21.70;19.77;;;28.20;78.10;;;;;;5079658;28;20031;-54
2023/03/01 01:51:47;;;;;;;22.52;20.25;;;28.20;78.00;;;;;;5079487;28;20021;-54
2023/03/01 01:54:23;;;;;;;21.73;19.52;;;28.10;78.20;;;;;;5073135;28;20221;-54
2023/03/01 01:57:02;;;;;;;24.60;19.77;;;28.10;78.00;;;;;;5084517;28;20334;-59
2023/03/01 01:59:32;;;;;;;21.40;19.20;;;28.10;78.10;;;;;;5082748;28;20079;-56
2023/03/01 02:02:02;;;;;;;24.73;18.98;;;28.10;77.90;;;;;;5075954;28;20037;-54
2023/03/01 02:04:30;;;;;;;27.08;19.85;;;28.10;78.00;;;;;;5064690;28;20032;-52
2023/03/01 02:07:07;;;;;;;21.98;18.63;;;28.00;78.10;;;;;;5064591;28;20028;-55
2023/03/01 02:09:36;;;;;;;23.75;18.35;;;28.00;78.00;;;;;;5065941;28;20101;-53
2023/03/01 02:12:05;;;;;;;20.45;18.35;;;28.00;77.70;;;;;;5065352;28;20032;-53
2023/03/01 02:14:31;;;;;;;21.13;17.85;;;28.00;77.40;;;;;;5068753;28;20024;-49
2023/03/01 02:16:58;;;;;;;19.02;16.85;;;28.00;76.90;;;;;;5074186;28;20205;-54
2023/03/01 02:20:06;;;;;;;18.60;16.45;;;28.00;76.60;;;;;;5065714;28;20028;-52
2023/03/01 02:22:35;;;;;;;21.27;17.15;;;28.00;76.40;;;;;;5080351;28;20040;-55
2023/03/01 02:25:02;;;;;;;18.45;16.55;;;28.00;76.30;;;;;;5085497;28;20070;-56
2023/03/01 02:27:40;;;;;;;19.08;17.05;;;28.00;76.10;;;;;;5085335;28;20043;-58
2023/03/01 02:30:12;;;;;;;18.92;17.05;;;28.00;76.20;;;;;;5077302;28;20208;-56
2023/03/01 02:32:41;;;;;;;18.50;16.57;;;28.00;76.60;;;;;;5085063;28;20035;-56
2023/03/01 02:35:12;;;;;;;27.65;16.55;;;27.90;76.70;;;;;;5085005;28;20293;-50
2023/03/01 02:37:41;;;;;;;27.63;17.35;;;27.90;76.50;;;;;;5085092;28;20039;-54
2023/03/01 02:40:13;;;;;;;23.10;16.63;;;27.90;76.90;;;;;;5084977;28;20024;-55
2023/03/01 02:42:51;;;;;;;22.05;17.50;;;27.90;76.90;;;;;;5084866;28;20296;-54
2023/03/01 02:45:17;;;;;;;19.45;16.65;;;27.90;77.00;;;;;;5085014;28;20028;-53
2023/03/01 02:47:44;;;;;;;18.33;16.35;;;27.90;76.80;;;;;;5084728;28;20040;-53
2023/03/01 02:50:19;;;;;;;22.17;17.55;;;27.80;77.10;;;;;;5084732;28;20329;-57
2023/03/01 02:53:15;;;;;;;18.58;16.65;;;27.90;77.30;;;;;;5084689;28;20020;-55
2023/03/01 02:55:42;;;;;;;20.67;17.58;;;27.80;77.30;;;;;;5084787;28;20367;-55
2023/03/01 02:58:09;;;;;;;19.02;16.60;;;27.80;77.30;;;;;;5084951;28;20032;-56
2023/03/01 03:00:46;;;;;;;19.33;17.30;;;27.80;77.60;;;;;;5084550;28;20012;-58
2023/03/01 03:03:15;;;;;;;17.83;15.95;;;27.80;77.50;;;;;;5076537;28;20024;-56
2023/03/01 03:05:42;;;;;;;17.90;16.10;;;27.80;77.40;;;;;;5064513;28;20020;-53
2023/03/01 03:08:09;;;;;;;19.60;16.90;;;27.80;77.80;;;;;;5064648;28;20405;-55
2023/03/01 03:10:39;;;;;;;18.58;16.77;;;27.70;78.00;;;;;;5064399;28;20067;-54
2023/03/01 03:13:09;;;;;;;18.02;16.27;;;27.70;78.20;;;;;;5064398;28;20036;-55
2023/03/01 03:15:36;;;;;;;19.10;17.10;;;27.70;78.20;;;;;;5064550;28;20021;-55
2023/03/01 03:18:05;;;;;;;18.27;16.40;;;27.70;78.20;;;;;;5064292;28;20017;-55
2023/03/01 03:20:32;;;;;;;22.20;16.42;;;27.70;78.50;;;;;;5064107;28;20037;-53
2023/03/01 03:22:59;;;;;;;19.67;16.98;;;27.60;78.60;;;;;;5064310;28;20064;-53
2023/03/01 03:25:27;;;;;;;18.98;16.95;;;27.60;79.00;;;;;;5064286;28;20333;-54
2023/03/01 03:27:56;;;;;;;19.23;17.38;;;27.60;79.20;;;;;;5064107;28;20032;-56
2023/03/01 03:30:29;;;;;;;19.08;17.17;;;27.50;79.20;;;;;;5064050;28;20025;-53
2023/03/01 03:32:56;;;;;;;18.48;16.77;;;27.60;78.90;;;;;;5064069;28;20029;-54
2023/03/01 03:35:24;;;;;;;17.90;16.08;;;27.60;78.60;;;;;;5063675;28;20021;-54
2023/03/01 03:38:01;;;;;;;17.88;16.05;;;27.60;78.40;;;;;;5064053;28;20084;-59
2023/03/01 03:40:31;;;;;;;17.83;16.15;;;27.60;78.50;;;;;;5063887;28;20013;-59
2023/03/01 03:42:57;;;;;;;16.52;15.00;;;27.60;78.40;;;;;;5063852;28;20103;-54
2023/03/01 03:45:24;;;;;;;17.48;15.80;;;27.60;78.20;;;;;;5063839;28;20021;-57
2023/03/01 03:47:51;;;;;;;17.08;15.48;;;27.60;78.00;;;;;;5063759;28;20388;-55
2023/03/01 03:50:18;;;;;;;17.05;15.48;;;27.60;77.90;;;;;;5063881;28;20054;-55
2023/03/01 03:52:45;;;;;;;17.05;15.50;;;27.60;77.40;;;;;;5063708;28;20024;-57
2023/03/01 03:55:12;;;;;;;17.00;15.27;;;27.60;77.50;;;;;;5063768;28;20016;-53
2023/03/01 03:57:41;;;;;;;16.10;14.57;;;27.70;77.50;;;;;;5063701;28;20084;-51
2023/03/01 04:00:12;;;;;;;16.10;14.50;;;27.70;77.10;;;;;;5063831;28;20216;-55
2023/03/01 04:02:43;;;;;;;16.13;14.60;;;27.60;77.00;;;;;;5063486;28;20041;-50
2023/03/01 04:05:12;;;;;;;16.67;15.10;;;27.70;77.20;;;;;;5063810;28;20094;-57
2023/03/01 04:07:39;;;;;;;16.65;15.20;;;27.70;76.90;;;;;;5063686;28;20047;-54
2023/03/01 04:10:08;;;;;;;16.95;15.35;;;27.70;76.90;;;;;;5063400;28;20187;-54
2023/03/01 04:12:35;;;;;;;16.83;15.05;;;27.70;76.90;;;;;;5063413;28;20025;-58
2023/03/01 04:15:12;;;;;;;15.55;14.07;;;27.70;76.90;;;;;;5063576;28;20041;-54
2023/03/01 04:17:42;;;;;;;16.80;15.32;;;27.70;76.80;;;;;;5063490;28;20024;-51
2023/03/01 04:20:17;;;;;;;16.65;15.18;;;27.70;76.70;;;;;;5063440;28;20033;-47
2023/03/01 04:22:47;;;;;;;18.02;16.30;;;27.70;76.80;;;;;;5063284;28;20021;-54
2023/03/01 04:25:14;;;;;;;27.08;24.48;;;27.70;77.40;;;;;;5063392;28;20021;-53
2023/03/01 04:27:41;;;;;;;22.55;20.45;;;27.60;77.50;;;;;;5063496;28;20017;-50
2023/03/01 04:30:09;;;;;;;21.60;19.50;;;27.70;77.50;;;;;;5063404;28;20328;-53
2023/03/01 04:32:35;;;;;;;21.08;19.08;;;27.70;77.40;;;;;;5063427;28;20032;-52
2023/03/01 04:35:02;;;;;;;18.38;16.88;;;27.70;77.60;;;;;;5064339;28;20024;-60
2023/03/01 04:37:29;;;;;;;20.80;18.90;;;27.70;77.60;;;;;;5072240;28;20055;-52
2023/03/01 04:39:56;;;;;;;23.60;20.83;;;27.60;77.90;;;;;;5083454;28;20028;-53
2023/03/01 04:42:23;;;;;;;22.92;20.48;;;27.60;78.20;;;;;;5083352;28;20012;-51
2023/03/01 04:44:51;;;;;;;22.95;20.75;;;27.70;78.40;;;;;;5083815;28;20032;-54
2023/03/01 04:47:18;;;;;;;21.67;19.70;;;27.60;78.40;;;;;;5086239;28;20016;-54
2023/03/01 04:49:44;;;;;;;18.90;16.48;;;27.60;78.50;;;;;;5087672;28;20032;-52
2023/03/01 04:52:11;;;;;;;18.38;16.70;;;27.60;78.40;;;;;;5086964;28;20037;-50
2023/03/01 04:54:37;;;;;;;18.65;16.88;;;27.60;78.50;;;;;;5087419;28;20044;-51
2023/03/01 04:57:04;;;;;;;18.63;16.50;;;27.60;78.90;;;;;;5086982;28;20017;-54
2023/03/01 04:59:31;;;;;;;17.38;15.82;;;27.60;78.90;;;;;;5087166;28;20028;-51
2023/03/01 05:01:57;;;;;;;17.83;16.13;;;27.60;79.10;;;;;;5086875;28;20022;-53
2023/03/01 05:04:25;;;;;;;18.88;15.93;;;27.60;79.30;;;;;;5087224;28;20028;-49
2023/03/01 05:06:53;;;;;;;17.55;15.80;;;27.60;79.20;;;;;;5086642;28;20240;-52
2023/03/01 05:09:20;;;;;;;17.58;15.85;;;27.60;79.40;;;;;;5087118;28;20044;-58
2023/03/01 05:11:46;;;;;;;17.90;16.30;;;27.50;79.50;;;;;;5086714;28;20190;-52
2023/03/01 05:14:13;;;;;;;17.00;15.50;;;27.50;79.60;;;;;;5087003;28;20070;-54
2023/03/01 05:16:39;;;;;;;17.08;15.50;;;27.50;79.80;;;;;;5086551;28;20065;-54
2023/03/01 05:19:11;;;;;;;17.25;15.60;;;27.50;80.00;;;;;;5087022;28;20332;-50
2023/03/01 05:22:01;;;;;;;17.75;16.02;;;27.50;80.00;;;;;;5086401;28;20072;-55
2023/03/01 05:24:28;;;;;;;18.83;15.77;;;27.40;80.00;;;;;;5086917;28;20314;-49
2023/03/01 05:26:55;;;;;;;17.23;15.63;;;27.50;80.10;;;;;;5086503;28;20301;-54
2023/03/01 05:29:25;;;;;;;17.38;15.55;;;27.50;80.00;;;;;;5086988;28;20028;-53
2023/03/01 05:31:54;;;;;;;17.42;15.73;;;27.50;80.40;;;;;;5086394;28;20030;-59
2023/03/01 05:34:28;;;;;;;18.27;16.05;;;27.50;80.50;;;;;;5086728;28;20058;-50
2023/03/01 05:36:55;;;;;;;17.30;15.70;;;27.50;80.70;;;;;;5086410;28;20059;-54
2023/03/01 05:39:26;;;;;;;17.30;15.63;;;27.40;80.20;;;;;;5086443;28;20032;-53
2023/03/01 05:41:58;;;;;;;16.83;15.30;;;27.40;80.20;;;;;;5086322;28;20025;-53
2023/03/01 05:44:26;;;;;;;17.80;16.00;;;27.40;79.80;;;;;;5086678;28;20033;-51
2023/03/01 05:46:53;;;;;;;16.13;14.70;;;27.40;79.40;;;;;;5086026;28;20020;-50
2023/03/01 05:49:20;;;;;;;16.30;14.80;;;27.40;79.10;;;;;;5086107;28;20340;-58
2023/03/01 05:51:52;;;;;;;17.30;15.45;;;27.40;79.20;;;;;;5086075;28;20312;-56
2023/03/01 05:54:19;;;;;;;;;;;27.40;79.20;;;;;;5086769;28;20032;-55
2023/03/01 05:56:46;;;;;;;16.95;15.25;;;27.40;79.40;;;;;;5085841;28;19923;-50
2023/03/01 05:59:14;;;;;;;17.25;15.55;;;27.40;79.40;;;;;;5086356;28;20024;-51
2023/03/01 06:01:41;;;;;;;17.00;15.60;;;27.40;79.60;;;;;;5085772;28;20047;-53
2023/03/01 06:04:08;;;;;;;16.95;15.27;;;27.30;79.70;;;;;;5086229;28;20024;-50
2023/03/01 06:06:39;;;;;;;17.65;15.93;;;27.30;79.90;;;;;;5085764;28;20020;-56
2023/03/01 06:09:09;;;;;;;16.97;15.17;;;27.30;79.90;;;;;;5086026;28;20028;-50
2023/03/01 06:11:36;;;;;;;17.25;15.85;;;27.30;79.90;;;;;;5085595;28;20016;-48
2023/03/01 06:14:04;;;;;;;16.27;14.68;;;27.30;80.40;;;;;;5085902;28;20316;-50
2023/03/01 06:16:30;;;;;;;21.13;16.45;;;27.30;80.00;;;;;;5085736;28;20024;-51
2023/03/01 06:18:57;;;;;;;21.10;18.30;;;27.30;79.70;;;;;;5085978;28;20111;-55
2023/03/01 06:21:23;;;;;;;18.83;16.92;;;27.30;79.50;;;;;;5085520;28;20041;-57
2023/03/01 06:23:51;;;;;;;20.20;18.27;;;27.30;79.80;;;;;;5085628;28;20138;-55
2023/03/01 06:26:18;;;;;;;19.48;17.40;;;27.30;79.90;;;;;;5085833;28;20189;-52
2023/03/01 06:28:45;;;;;;;21.88;18.55;;;27.30;80.30;;;;;;5085599;28;20244;-53
2023/03/01 06:31:12;;;;;;;25.00;17.92;;;27.30;80.10;;;;;;5085357;28;20308;-58
2023/03/01 06:33:44;;;;;;;37.53;18.02;;;27.30;80.30;;;;;;5085176;28;20032;-54
2023/03/01 06:36:10;;;;;;;43.00;18.60;;;27.30;80.60;;;;;;5085115;28;20016;-57
2023/03/01 06:38:37;;;;;;;47.97;19.10;;;27.30;80.70;;;;;;5085367;28;20028;-52
2023/03/01 06:41:04;;;;;;;51.47;18.98;;;27.30;80.50;;;;;;5085154;28;20254;-52
2023/03/01 06:43:31;;;;;;;40.03;18.15;;;27.30;80.50;;;;;;5084875;28;20212;-51
2023/03/01 06:45:57;;;;;;;38.95;18.35;;;27.30;80.30;;;;;;5085236;28;20114;-53
2023/03/01 06:48:24;;;;;;;40.20;19.40;;;27.30;80.40;;;;;;5085117;28;20351;-56
2023/03/01 06:50:50;;;;;;;28.50;17.92;;;27.30;80.40;;;;;;5084776;28;20032;-50
2023/03/01 06:53:17;;;;;;;26.65;18.48;;;27.30;80.50;;;;;;5084795;28;20320;-56
2023/03/01 06:55:44;;;;;;;28.83;19.63;;;27.30;80.70;;;;;;5084690;28;20087;-54
2023/03/01 06:58:11;;;;;;;20.88;18.38;;;27.30;81.10;;;;;;5084872;28;20256;-50
2023/03/01 07:00:37;;;;;;;24.25;18.08;;;27.30;81.10;;;;;;5084600;28;20013;-53
2023/03/01 07:03:04;;;;;;;21.63;17.83;;;27.30;81.20;;;;;;5084670;28;20208;-54
2023/03/01 07:05:33;;;;;;;19.42;17.48;;;27.30;81.20;;;;;;5084670;28;20185;-58
2023/03/01 07:07:59;;;;;;;22.25;17.33;;;27.30;81.40;;;;;;5084434;28;20024;-55
2023/03/01 07:10:26;;;;;;;19.67;17.55;;;27.30;81.50;;;;;;5084154;28;20212;-54
2023/03/01 07:12:56;;;;;;;24.98;17.05;;;27.30;81.60;;;;;;5084464;28;20031;-55
2023/03/01 07:15:24;;;;;;;17.98;16.30;;;27.30;81.80;;;;;;5084413;28;20080;-48
2023/03/01 07:17:50;;;;;;;18.08;16.30;;;27.20;81.80;;;;;;5084366;28;20316;-53
2023/03/01 07:20:25;;;;;;;18.38;16.45;;;27.20;81.90;;;;;;5084317;28;20048;-52
2023/03/01 07:22:58;;;;;;;19.65;16.60;;;27.20;82.10;;;;;;5084179;28;20043;-52
2023/03/01 07:25:25;;;;;;;18.45;16.67;;;27.20;82.50;;;;;;5084300;28;20032;-48
2023/03/01 07:27:54;;;;;;;18.35;16.73;;;27.20;82.70;;;;;;5084078;28;20025;-50
2023/03/01 07:30:22;;;;;;;17.98;16.10;;;27.20;82.80;;;;;;5084289;28;20083;-53
2023/03/01 07:32:48;;;;;;;17.55;16.00;;;27.20;82.90;;;;;;5084130;28;20029;-56
2023/03/01 07:35:15;;;;;;;18.33;16.67;;;27.20;83.00;;;;;;5084041;28;20028;-56
2023/03/01 07:37:42;;;;;;;20.05;16.25;;;27.20;83.10;;;;;;5084154;28;20036;-49
2023/03/01 07:40:10;;;;;;;19.10;16.92;;;27.20;83.60;;;;;;5084109;28;20021;-50
2023/03/01 07:42:37;;;;;;;19.13;16.75;;;27.10;83.70;;;;;;5083851;28;20301;-50
2023/03/01 07:45:05;;;;;;;17.80;16.20;;;27.10;84.00;;;;;;5083956;28;20020;-53
2023/03/01 07:47:32;;;;;;;17.70;16.00;;;27.10;84.50;;;;;;5083840;28;20062;-53
2023/03/01 07:49:59;;;;;;;17.80;16.10;;;27.10;84.10;;;;;;5083750;28;20024;-58
2023/03/01 07:52:25;;;;;;;18.52;16.83;;;27.10;84.20;;;;;;5083848;28;20047;-55
2023/03/01 07:54:52;;;;;;;18.33;16.63;;;27.10;84.40;;;;;;5084453;28;20021;-50
2023/03/01 07:57:19;;;;;;;18.50;16.75;;;27.10;84.70;;;;;;5083837;28;20024;-59
2023/03/01 07:59:45;;;;;;;17.80;16.05;;;27.10;84.90;;;;;;5084358;28;20052;-48
2023/03/01 08:02:12;;;;;;;18.33;16.50;;;27.10;85.10;;;;;;5083872;28;20020;-53
2023/03/01 08:04:38;;;;;;;18.73;17.02;;;27.10;85.20;;;;;;5084087;28;20031;-55
2023/03/01 08:07:06;;;;;;;18.20;16.40;;;27.10;85.00;;;;;;5083839;28;20185;-53
2023/03/01 08:09:36;;;;;;;18.25;16.52;;;27.10;85.00;;;;;;5084214;28;20024;-52
2023/03/01 08:12:04;;;;;;;20.48;17.33;;;27.10;84.90;;;;;;5083531;28;20021;-54
2023/03/01 08:14:32;;;;;;;18.60;16.60;;;27.00;85.00;;;;;;5084147;28;20066;-57
2023/03/01 08:16:58;;;;;;;18.98;17.08;;;27.00;85.00;;;;;;5083642;28;20016;-52
2023/03/01 08:19:25;;;;;;;19.25;17.38;;;27.00;85.10;;;;;;5084022;28;20078;-55
2023/03/01 08:21:51;;;;;;;19.27;17.40;;;27.00;85.30;;;;;;5085821;28;20225;-52
2023/03/01 08:24:18;;;;;;;18.20;16.63;;;27.00;85.50;;;;;;5088131;28;20020;-53
2023/03/01 08:26:45;;;;;;;18.17;16.45;;;27.00;85.90;;;;;;5087579;28;20016;-51
2023/03/01 08:29:11;;;;;;;17.88;16.17;;;27.00;85.80;;;;;;5087933;28;20035;-54
2023/03/01 08:31:40;;;;;;;17.95;16.35;;;27.00;85.60;;;;;;5087671;28;20079;-58
2023/03/01 08:34:12;;;;;;;18.10;16.40;;;27.00;85.80;;;;;;5087772;28;20026;-54
2023/03/01 08:36:40;;;;;;;;;;;27.00;86.00;;;;;;5087973;28;20032;-53
2023/03/01 08:39:09;;;;;;;18.63;16.92;;;26.90;86.20;;;;;;5087797;28;19931;-53
2023/03/01 08:41:36;;;;;;;18.48;16.77;;;27.00;86.40;;;;;;5071398;28;20059;-60
2023/03/01 08:44:03;;;;;;;18.85;17.15;;;27.00;86.00;;;;;;5074642;28;20043;-53
2023/03/01 08:46:33;;;;;;;19.23;17.40;;;27.00;86.00;;;;;;5107646;28;20060;-51
2023/03/01 08:49:00;;;;;;;18.52;16.90;;;26.90;86.20;;;;;;5107712;28;20031;-55
2023/03/01 08:51:27;;;;;;;19.13;17.35;;;26.90;86.30;;;;;;5107536;28;20212;-49
2023/03/01 08:53:54;;;;;;;19.00;17.33;;;26.90;86.50;;;;;;5107626;28;20027;-54
2023/03/01 08:56:21;;;;;;;18.83;17.23;;;26.90;86.50;;;;;;5107349;28;20020;-55
2023/03/01 08:58:49;;;;;;;18.45;16.75;;;26.90;86.60;;;;;;5107546;28;20065;-56
2023/03/01 09:01:18;;;;;;;19.05;17.15;;;26.90;86.70;;;;;;5107365;28;20019;-55
2023/03/01 09:03:45;;;;;;;19.25;17.48;;;26.90;86.70;;;;;;5107032;28;20269;-50
2023/03/01 09:06:13;;;;;;;18.90;16.95;;;26.90;86.50;;;;;;5107212;28;20024;-51
2023/03/01 09:08:45;;;;;;;18.08;16.27;;;26.90;86.40;;;;;;5107297;28;20078;-49
2023/03/01 09:11:15;;;;;;;17.92;16.13;;;26.90;86.10;;;;;;5104442;28;20099;-54
2023/03/01 09:13:42;;;;;;;19.20;17.40;;;26.90;86.30;;;;;;5095168;28;20043;-55
2023/03/01 09:16:10;;;;;;;17.83;16.15;;;26.90;86.30;;;;;;5084644;28;20300;-58
2023/03/01 09:18:37;;;;;;;18.33;16.67;;;26.90;86.30;;;;;;5086958;28;20028;-55
2023/03/01 09:21:07;;;;;;;19.02;17.23;;;26.80;85.90;;;;;;5086412;28;20087;-54
2023/03/01 09:23:39;;;;;;;18.23;16.25;;;26.80;86.20;;;;;;5086641;28;20032;-55
2023/03/01 09:26:08;;;;;;;17.75;16.15;;;26.90;86.20;;;;;;5086570;28;20021;-54
2023/03/01 09:28:35;;;;;;;18.52;16.73;;;26.80;86.10;;;;;;5086672;28;20043;-53
2023/03/01 09:31:02;;;;;;;19.40;17.52;;;26.80;86.10;;;;;;5086483;28;20039;-54
2023/03/01 09:33:31;;;;;;;18.70;16.95;;;26.80;86.00;;;;;;5085902;28;20039;-53
2023/03/01 09:36:04;;;;;;;18.92;17.10;;;26.80;86.20;;;;;;5086324;28;20020;-59
2023/03/01 09:38:31;;;;;;;18.15;16.40;;;26.80;86.00;;;;;;5086340;28;20249;-52
2023/03/01 09:40:59;;;;;;;18.58;16.77;;;26.80;85.70;;;;;;5086133;28;20316;-52
2023/03/01 09:43:41;;;;;;;18.85;17.05;;;26.80;85.70;;;;;;5086343;28;20074;-53
2023/03/01 09:46:11;;;;;;;18.63;16.95;;;26.80;85.60;;;;;;5085789;28;20032;-52
2023/03/01 09:48:59;;;;;;;19.02;17.23;;;26.80;85.60;;;;;;5085017;28;20224;-55
2023/03/01 09:51:36;;;;;;;19.73;17.63;;;26.80;85.80;;;;;;5086174;28;20024;-54
2023/03/01 09:54:05;;;;;;;18.75;16.83;;;26.80;86.20;;;;;;5086232;28;20035;-54
2023/03/01 09:56:44;;;;;;;19.50;17.55;;;26.80;86.00;;;;;;5085805;28;20081;-51
2023/03/01 09:59:37;;;;;;;19.40;17.42;;;26.80;86.10;;;;;;5086225;28;20051;-50
2023/03/01 10:02:22;;;;;;;18.75;17.10;;;26.80;86.40;;;;;;5086016;28;20020;-53
2023/03/01 10:04:51;;;;;;;19.20;17.17;;;26.70;86.50;;;;;;5086272;28;20028;-51
2023/03/01 10:07:23;;;;;;;20.48;18.45;;;26.80;86.80;;;;;;5085899;28;20012;-49
2023/03/01 10:09:50;;;;;;;;;;;26.70;86.90;;;;;;5086478;28;20052;-56
2023/03/01 10:12:22;;;;;;;23.25;19.52;;;26.70;87.10;;;;;;5085643;28;19905;-53
2023/03/01 10:15:14;;;;;;;21.88;19.65;;;26.70;87.20;;;;;;5086192;28;20031;-52
2023/03/01 10:17:57;;;;;;;22.07;18.20;;;26.70;87.40;;;;;;5085737;28;20044;-58
2023/03/01 10:20:30;;;;;;;23.00;20.60;;;26.70;87.00;;;;;;5084275;28;20290;-52
2023/03/01 10:22:56;;;;;;;24.10;21.52;;;26.70;87.20;;;;;;5085486;28;20032;-53
2023/03/01 10:25:47;;;;;;;23.15;20.83;;;26.70;87.20;;;;;;5085200;28;20223;-53
2023/03/01 10:28:32;;;;;;;23.92;20.67;;;26.70;87.20;;;;;;5085533;28;20031;-53
2023/03/01 10:30:59;;;;;;;24.92;22.35;;;26.70;87.10;;;;;;5085228;28;20084;-53
2023/03/01 10:33:35;;;;;;;46.63;32.95;;;26.70;86.80;;;;;;5085140;28;20032;-54
2023/03/01 10:36:02;;;;;;;40.75;30.83;;;26.60;86.80;;;;;;5086358;28;20205;-55
2023/03/01 10:38:46;;;;;;;87.22;67.25;;;26.60;87.20;;;;;;5085150;28;20027;-55
2023/03/01 10:41:13;;;;;;;82.45;68.03;;;26.60;87.40;;;;;;5085239;28;20023;-59
2023/03/01 10:43:53;;;;;;;77.97;60.58;;;26.60;87.60;;;;;;5084156;28;20032;-57
2023/03/01 10:46:29;;;;;;;72.35;55.97;;;26.60;87.70;;;;;;5084860;28;20209;-56
2023/03/01 10:49:25;;;;;;;59.35;47.13;;;26.70;87.90;;;;;;5085024;28;20031;-52
2023/03/01 10:51:54;;;;;;;41.42;31.23;;;26.60;88.10;;;;;;5084766;28;20024;-57
2023/03/01 10:54:30;;;;;;;46.25;30.60;;;26.60;88.10;;;;;;5085233;28;20395;-56
2023/03/01 10:57:06;;;;;;;31.95;28.50;;;26.60;88.20;;;;;;5084781;28;20028;-55
2023/03/01 10:59:35;;;;;;;29.48;24.85;;;26.60;88.10;;;;;;5085003;28;20048;-56
2023/03/01 11:02:30;;;;;;;28.67;23.38;;;26.60;88.30;;;;;;5077129;28;20032;-58
2023/03/01 11:05:13;;;;;;;26.27;21.23;;;26.60;88.20;;;;;;5084644;28;20138;-57
2023/03/01 11:07:54;;;;;;;23.10;20.70;;;26.60;88.30;;;;;;5084562;28;20027;-55
2023/03/01 11:10:27;;;;;;;22.63;20.23;;;26.60;88.10;;;;;;5078172;28;20025;-58
2023/03/01 11:13:06;;;;;;;26.50;19.88;;;26.60;88.30;;;;;;5071065;28;20025;-54
2023/03/01 11:15:33;;;;;;;22.75;19.33;;;26.60;88.40;;;;;;5077981;28;20220;-56
2023/03/01 11:18:00;;;;;;;24.55;19.52;;;26.60;88.30;;;;;;5075701;28;20308;-57
2023/03/01 11:20:32;;;;;;;20.67;18.33;;;26.60;88.60;;;;;;5064082;28;20068;-54
2023/03/01 11:23:15;;;;;;;24.00;19.92;;;26.60;88.80;;;;;;5064435;28;20020;-55
2023/03/01 11:26:06;;;;;;;28.38;24.20;;;26.70;88.80;;;;;;5064081;28;20380;-56
2023/03/01 11:28:36;;;;;;;31.15;23.60;;;26.70;89.00;;;;;;5064425;28;20032;-49
2023/03/01 11:31:02;;;;;;;24.20;21.40;;;26.60;88.80;;;;;;5064071;28;20044;-54
2023/03/01 11:33:29;;;;;;;22.38;20.08;;;26.70;89.00;;;;;;5064087;28;20020;-52
2023/03/01 11:36:21;;;;;;;24.65;20.10;;;26.70;89.00;;;;;;5063992;28;20012;-51
2023/03/01 11:38:48;;;;;;;22.33;19.55;;;26.70;88.60;;;;;;5077069;28;20083;-55
2023/03/01 11:41:23;;;;;;;23.77;20.17;;;26.70;88.40;;;;;;5084171;28;20029;-54
2023/03/01 11:43:58;;;;;;;29.25;20.55;;;26.70;88.40;;;;;;5084402;28;20055;-62
2023/03/01 11:46:45;;;;;;;27.52;20.02;;;26.70;88.40;;;;;;5084483;28;20020;-55
2023/03/01 11:49:54;;;;;;;23.75;19.42;;;26.70;88.30;;;;;;5083137;28;20033;-49
2023/03/01 11:52:49;;;;;;;26.92;20.33;;;26.70;88.40;;;;;;5083878;28;20020;-54
2023/03/01 11:55:21;;;;;;;21.92;19.70;;;26.70;88.80;;;;;;5082462;28;20042;-53
2023/03/01 11:58:22;;;;;;;25.27;19.63;;;26.70;88.70;;;;;;5065878;28;20260;-49
2023/03/01 12:01:09;;;;;;;25.75;19.73;;;26.80;88.70;;;;;;5065910;28;20054;-56
2023/03/01 12:03:54;;;;;;;24.17;19.83;;;26.80;88.50;;;;;;5083924;28;20304;-57
2023/03/01 12:06:30;;;;;;;23.35;20.48;;;26.80;88.50;;;;;;5083814;28;20039;-55
2023/03/01 12:08:56;;;;;;;23.25;20.60;;;26.80;88.40;;;;;;5083890;28;20029;-48
2023/03/01 12:11:38;;;;;;;23.38;20.25;;;26.80;88.10;;;;;;5083880;28;20028;-49
2023/03/01 12:14:08;;;;;;;23.52;19.98;;;26.80;88.50;;;;;;5083893;28;20032;-53
2023/03/01 12:16:40;;;;;;;21.63;19.35;;;26.90;87.80;;;;;;5083744;28;20012;-50
2023/03/01 12:19:20;;;;;;;21.45;19.35;;;26.90;87.70;;;;;;5083620;28;20031;-50
2023/03/01 12:22:17;;;;;;;21.98;19.70;;;26.90;87.80;;;;;;5083583;28;20063;-50
2023/03/01 12:25:29;;;;;;;21.52;19.27;;;26.90;87.60;;;;;;5083952;28;20016;-52
2023/03/01 12:28:20;;;;;;;20.67;18.67;;;26.90;88.00;;;;;;5083529;28;20059;-52
2023/03/01 12:31:00;;;;;;;22.10;19.85;;;26.90;87.80;;;;;;5083548;28;20447;-48
2023/03/01 12:33:53;;;;;;;23.10;19.70;;;26.90;87.80;;;;;;5083621;28;20024;-52
2023/03/01 12:36:55;;;;;;;23.58;19.27;;;26.90;88.10;;;;;;5083259;28;20082;-59
2023/03/01 12:39:40;;;;;;;24.38;19.65;;;26.90;88.60;;;;;;5083737;28;20123;-55
2023/03/01 12:42:10;;;;;;;21.30;19.05;;;26.90;88.60;;;;;;5083584;28;20024;-49
2023/03/01 12:45:18;;;;;;;22.80;20.30;;;26.90;88.50;;;;;;5083787;28;20317;-51
2023/03/01 12:48:14;;;;;;;25.23;19.23;;;26.90;88.70;;;;;;5059839;28;20032;-48